createdAt,value
2016-12-05T00:00:45.498Z,-2.2
2016-12-05T00:01:46.937Z,-2.2
2016-12-05T00:02:47.874Z,-2.2
2016-12-05T00:03:49.308Z,-2.2
2016-12-05T00:04:50.746Z,-2.2
2016-12-05T00:05:51.706Z,-2.2
2016-12-05T00:06:53.140Z,-2.2
2016-12-05T00:07:54.575Z,-2.2
2016-12-05T00:08:55.520Z,-2.2
2016-12-05T00:09:56.951Z,-2.2
2016-12-05T00:10:58.389Z,-2.2
2016-12-05T00:11:59.321Z,-2.2
2016-12-05T00:13:00.756Z,-2.2
2016-12-05T00:14:02.187Z,-2.3
2016-12-05T00:15:03.121Z,-2.3
2016-12-05T00:16:04.557Z,-2.2
2016-12-05T00:17:05.484Z,-2.3
2016-12-05T00:18:06.916Z,-2.3
2016-12-05T00:19:08.353Z,-2.3
2016-12-05T00:20:09.286Z,-2.3
2016-12-05T00:21:10.714Z,-2.3
2016-12-05T00:22:12.150Z,-2.3
2016-12-05T00:23:13.081Z,-2.3
2016-12-05T00:24:14.515Z,-2.3
2016-12-05T00:25:15.952Z,-2.3
2016-12-05T00:26:16.882Z,-2.3
2016-12-05T00:28:19.715Z,-2.3
2016-12-05T00:29:20.645Z,-2.3
2016-12-05T00:30:22.080Z,-2.3
2016-12-05T00:31:23.516Z,-2.3
2016-12-05T00:32:24.442Z,-2.3
2016-12-05T00:33:25.870Z,-2.3
2016-12-05T00:34:27.307Z,-2.3
2016-12-05T00:35:28.241Z,-2.3
2016-12-05T00:36:29.683Z,-2.3
2016-12-05T00:37:30.611Z,-2.3
2016-12-05T00:38:32.054Z,-2.3
2016-12-05T00:39:33.490Z,-2.3
2016-12-05T00:40:34.433Z,-2.3
2016-12-05T00:41:35.864Z,-2.3
2016-12-05T00:42:37.295Z,-2.3
2016-12-05T00:43:38.235Z,-2.4
2016-12-05T00:44:39.700Z,-2.4
2016-12-05T00:45:40.659Z,-2.4
2016-12-05T00:46:42.095Z,-2.4
2016-12-05T00:47:43.529Z,-2.4
2016-12-05T00:48:44.467Z,-2.4
2016-12-05T00:49:45.899Z,-2.4
2016-12-05T00:50:47.337Z,-2.4
2016-12-05T00:51:48.275Z,-2.4
2016-12-05T00:53:51.122Z,-2.4
2016-12-05T00:54:52.048Z,-2.4
2016-12-05T00:55:53.478Z,-2.4
2016-12-05T00:56:54.913Z,-2.4
2016-12-05T00:57:55.845Z,-2.4
2016-12-05T00:58:57.285Z,-2.4
2016-12-05T00:59:58.213Z,-2.4
2016-12-05T01:00:59.648Z,-2.4
2016-12-05T01:02:01.087Z,-2.4
2016-12-05T01:03:02.019Z,-2.4
2016-12-05T01:04:03.456Z,-2.4
2016-12-05T01:05:04.888Z,-2.4
2016-12-05T01:06:05.827Z,-2.4
2016-12-05T01:07:07.261Z,-2.4
2016-12-05T01:08:08.201Z,-2.4
2016-12-05T01:09:09.637Z,-2.4
2016-12-05T01:10:11.070Z,-2.4
2016-12-05T01:11:12.021Z,-2.4
2016-12-05T01:12:13.593Z,-2.4
2016-12-05T01:13:14.524Z,-2.4
2016-12-05T01:15:17.367Z,-2.4
2016-12-05T01:16:18.296Z,-2.4
2016-12-05T01:17:19.757Z,-2.4
2016-12-05T01:18:20.686Z,-2.4
2016-12-05T01:19:22.123Z,-2.4
2016-12-05T01:20:23.550Z,-2.4
2016-12-05T01:21:24.476Z,-2.4
2016-12-05T01:22:25.907Z,-2.4
2016-12-05T01:23:27.343Z,-2.4
2016-12-05T01:24:28.278Z,-2.4
2016-12-05T01:25:29.709Z,-2.4
2016-12-05T01:26:31.146Z,-2.4
2016-12-05T01:28:33.479Z,-2.5
2016-12-05T01:29:34.913Z,-2.4
2016-12-05T01:30:35.845Z,-2.4
2016-12-05T01:31:37.275Z,-2.5
2016-12-05T01:32:38.206Z,-2.5
2016-12-05T01:33:39.645Z,-2.5
2016-12-05T01:34:41.107Z,-2.5
2016-12-05T01:35:42.037Z,-2.5
2016-12-05T01:36:43.469Z,-2.5
2016-12-05T01:37:44.902Z,-2.5
2016-12-05T01:38:45.840Z,-2.5
2016-12-05T01:39:47.280Z,-2.5
2016-12-05T01:40:48.209Z,-2.5
2016-12-05T01:41:49.645Z,-2.5
2016-12-05T01:43:51.982Z,-2.5
2016-12-05T01:44:53.284Z,-2.5
2016-12-05T01:45:54.718Z,-2.5
2016-12-05T01:46:55.646Z,-2.6
2016-12-05T01:47:57.080Z,-2.6
2016-12-05T01:48:58.513Z,-2.6
2016-12-05T01:49:59.433Z,-2.6
2016-12-05T01:51:00.867Z,-2.6
2016-12-05T01:52:02.304Z,-2.6
2016-12-05T01:53:03.232Z,-2.6
2016-12-05T01:54:04.669Z,-2.7
2016-12-05T01:55:05.620Z,-2.6
2016-12-05T01:56:07.054Z,-2.6
2016-12-05T01:57:08.492Z,-2.7
2016-12-05T01:58:09.431Z,-2.7
2016-12-05T01:59:10.864Z,-2.7
2016-12-05T02:00:12.302Z,-2.7
2016-12-05T02:01:13.228Z,-2.7
2016-12-05T02:03:15.557Z,-2.7
2016-12-05T02:04:16.992Z,-2.7
2016-12-05T02:05:18.216Z,-2.7
2016-12-05T02:06:19.651Z,-2.8
2016-12-05T02:07:20.581Z,-2.8
2016-12-05T02:08:22.014Z,-2.8
2016-12-05T02:09:23.457Z,-2.8
2016-12-05T02:10:24.394Z,-2.8
2016-12-05T02:11:25.829Z,-2.8
2016-12-05T02:12:26.762Z,-2.8
2016-12-05T02:13:28.192Z,-2.8
2016-12-05T02:14:29.622Z,-2.9
2016-12-05T02:15:30.549Z,-2.9
2016-12-05T02:16:31.984Z,-2.9
2016-12-05T02:18:34.309Z,-2.9
2016-12-05T02:19:35.744Z,-2.9
2016-12-05T02:20:36.678Z,-2.9
2016-12-05T02:21:38.109Z,-2.9
2016-12-05T02:22:39.540Z,-2.9
2016-12-05T02:23:40.604Z,-2.9
2016-12-05T02:24:42.038Z,-2.9
2016-12-05T02:25:42.971Z,-2.9
2016-12-05T02:26:44.403Z,-2.9
2016-12-05T02:27:45.336Z,-2.9
2016-12-05T02:28:46.774Z,-2.9
2016-12-05T02:29:48.207Z,-2.9
2016-12-05T02:30:49.143Z,-2.9
2016-12-05T02:31:50.574Z,-2.9
2016-12-05T02:32:51.504Z,-2.9
2016-12-05T02:33:52.934Z,-2.9
2016-12-05T02:34:54.372Z,-2.9
2016-12-05T02:35:55.305Z,-2.9
2016-12-05T02:37:58.167Z,-2.9
2016-12-05T02:38:59.100Z,-2.9
2016-12-05T02:40:00.535Z,-2.9
2016-12-05T02:41:01.601Z,-2.9
2016-12-05T02:42:03.035Z,-2.9
2016-12-05T02:43:03.967Z,-2.8
2016-12-05T02:44:05.399Z,-2.9
2016-12-05T02:45:06.328Z,-2.8
2016-12-05T02:46:07.760Z,-2.8
2016-12-05T02:47:09.199Z,-2.8
2016-12-05T02:48:10.131Z,-2.8
2016-12-05T02:49:11.567Z,-2.8
2016-12-05T02:50:13.006Z,-2.8
2016-12-05T02:51:13.939Z,-2.8
2016-12-05T02:52:15.373Z,-2.9
2016-12-05T02:53:16.302Z,-2.9
2016-12-05T02:54:17.741Z,-2.9
2016-12-05T02:55:19.177Z,-2.9
2016-12-05T02:56:20.109Z,-2.9
2016-12-05T02:57:21.548Z,-2.9
2016-12-05T02:58:22.473Z,-2.9
2016-12-05T02:59:23.903Z,-2.9
2016-12-05T03:00:25.340Z,-2.9
2016-12-05T03:01:26.278Z,-2.9
2016-12-05T03:02:27.710Z,-2.9
2016-12-05T03:03:28.641Z,-3
2016-12-05T03:04:30.069Z,-3
2016-12-05T03:05:31.508Z,-3
2016-12-05T03:06:32.441Z,-3
2016-12-05T03:07:33.872Z,-3
2016-12-05T03:08:34.806Z,-3
2016-12-05T03:09:36.240Z,-3
2016-12-05T03:10:37.671Z,-3
2016-12-05T03:11:38.605Z,-3
2016-12-05T03:12:40.044Z,-3
2016-12-05T03:13:40.982Z,-3
2016-12-05T03:14:42.412Z,-3
2016-12-05T03:15:43.841Z,-3
2016-12-05T03:16:44.775Z,-3
2016-12-05T03:17:46.217Z,-3
2016-12-05T03:18:47.144Z,-3
2016-12-05T03:19:48.577Z,-3
2016-12-05T03:20:50.008Z,-3
2016-12-05T03:21:50.943Z,-3
2016-12-05T03:22:52.376Z,-3
2016-12-05T03:23:53.306Z,-3
2016-12-05T03:24:54.735Z,-3
2016-12-05T03:26:57.060Z,-3
2016-12-05T03:27:58.492Z,-3
2016-12-05T03:28:59.549Z,-3
2016-12-05T03:30:00.985Z,-3
2016-12-05T03:31:01.910Z,-3
2016-12-05T03:32:03.341Z,-3.1
2016-12-05T03:33:04.768Z,-3
2016-12-05T03:34:05.700Z,-3.1
2016-12-05T03:35:07.132Z,-3.1
2016-12-05T03:36:08.063Z,-3.1
2016-12-05T03:37:09.491Z,-3.1
2016-12-05T03:38:10.921Z,-3.1
2016-12-05T03:39:11.850Z,-3.1
2016-12-05T03:40:13.279Z,-3.1
2016-12-05T03:41:14.205Z,-3.1
2016-12-05T03:42:15.634Z,-3.1
2016-12-05T03:43:17.071Z,-3.1
2016-12-05T03:44:17.999Z,-3
2016-12-05T03:45:19.434Z,-3.1
2016-12-05T03:46:20.365Z,-3
2016-12-05T03:47:21.790Z,-3.1
2016-12-05T03:48:23.215Z,-3
2016-12-05T03:49:24.147Z,-3
2016-12-05T03:51:26.469Z,-3
2016-12-05T03:52:27.902Z,-3.1
2016-12-05T03:53:29.332Z,-3.1
2016-12-05T03:55:31.657Z,-3.1
2016-12-05T03:57:33.985Z,-3
2016-12-05T03:58:35.416Z,-3
2016-12-05T03:59:36.348Z,-3.1
2016-12-05T04:00:37.776Z,-3.1
2016-12-05T04:01:39.205Z,-3.1
2016-12-05T04:02:40.140Z,-3.1
2016-12-05T04:03:41.575Z,-3.1
2016-12-05T04:04:42.497Z,-3.1
2016-12-05T04:05:43.933Z,-3.1
2016-12-05T04:06:45.365Z,-3.1
2016-12-05T04:07:46.293Z,-3.1
2016-12-05T04:08:47.721Z,-3.1
2016-12-05T04:09:48.647Z,-3.1
2016-12-05T04:10:50.079Z,-3.1
2016-12-05T04:11:51.011Z,-3.1
2016-12-05T04:12:52.442Z,-3.1
2016-12-05T04:13:53.871Z,-3.1
2016-12-05T04:14:54.795Z,-3.1
2016-12-05T04:15:56.223Z,-3.1
2016-12-05T04:16:57.169Z,-3.1
2016-12-05T04:17:58.734Z,-3.1
2016-12-05T04:18:59.808Z,-3.1
2016-12-05T04:20:01.270Z,-3.1
2016-12-05T04:21:02.206Z,-3.1
2016-12-05T04:22:03.633Z,-3.1
2016-12-05T04:23:04.559Z,-3.1
2016-12-05T04:24:05.998Z,-3.1
2016-12-05T04:26:08.326Z,-3.1
2016-12-05T04:27:09.768Z,-3.2
2016-12-05T04:28:10.727Z,-3.2
2016-12-05T04:29:12.163Z,-3.2
2016-12-05T04:30:13.086Z,-3.2
2016-12-05T04:31:14.516Z,-3.2
2016-12-05T04:32:15.948Z,-3.2
2016-12-05T04:33:16.901Z,-3.2
2016-12-05T04:34:18.337Z,-3.2
2016-12-05T04:35:19.261Z,-3.2
2016-12-05T04:36:20.696Z,-3.2
2016-12-05T04:37:22.123Z,-3.2
2016-12-05T04:38:23.046Z,-3.2
2016-12-05T04:39:24.471Z,-3.2
2016-12-05T04:40:25.401Z,-3.2
2016-12-05T04:41:26.837Z,-3.2
2016-12-05T04:43:29.163Z,-3.2
2016-12-05T04:45:31.495Z,-3.2
2016-12-05T04:46:32.929Z,-3.2
2016-12-05T04:47:34.358Z,-3.2
2016-12-05T04:48:35.286Z,-3.2
2016-12-05T04:49:36.721Z,-3.2
2016-12-05T04:50:37.650Z,-3.2
2016-12-05T04:51:39.078Z,-3.2
2016-12-05T04:52:40.003Z,-3.2
2016-12-05T04:53:41.435Z,-3.2
2016-12-05T04:54:42.864Z,-3.2
2016-12-05T04:55:43.791Z,-3.2
2016-12-05T04:57:46.119Z,-3.2
2016-12-05T04:58:47.556Z,-3.2
2016-12-05T05:00:49.884Z,-3.2
2016-12-05T05:01:51.312Z,-3.2
2016-12-05T05:02:52.237Z,-3.2
2016-12-05T05:04:55.071Z,-3.2
2016-12-05T05:05:55.998Z,-3.2
2016-12-05T05:06:57.435Z,-3.2
2016-12-05T05:07:58.358Z,-3.2
2016-12-05T05:08:59.925Z,-3.2
2016-12-05T05:10:00.853Z,-3.2
2016-12-05T05:11:02.289Z,-3.2
2016-12-05T05:12:03.222Z,-3.2
2016-12-05T05:13:04.662Z,-3.2
2016-12-05T05:14:06.089Z,-3.2
2016-12-05T05:15:07.014Z,-3.2
2016-12-05T05:16:08.452Z,-3.2
2016-12-05T05:17:09.379Z,-3.3
2016-12-05T05:19:12.210Z,-3.3
2016-12-05T05:20:13.139Z,-3.3
2016-12-05T05:21:14.571Z,-3.3
2016-12-05T05:22:15.504Z,-3.3
2016-12-05T05:23:16.935Z,-3.3
2016-12-05T05:24:17.857Z,-3.3
2016-12-05T05:25:19.290Z,-3.3
2016-12-05T05:26:20.723Z,-3.3
2016-12-05T05:27:21.656Z,-3.3
2016-12-05T05:28:23.090Z,-3.3
2016-12-05T05:29:24.022Z,-3.3
2016-12-05T05:30:25.449Z,-3.3
2016-12-05T05:31:26.379Z,-3.3
2016-12-05T05:32:27.807Z,-3.3
2016-12-05T05:33:29.241Z,-3.3
2016-12-05T05:34:30.166Z,-3.3
2016-12-05T05:35:31.604Z,-3.3
2016-12-05T05:36:32.560Z,-3.3
2016-12-05T05:37:33.993Z,-3.3
2016-12-05T05:38:34.912Z,-3.3
2016-12-05T05:39:36.338Z,-3.3
2016-12-05T05:40:37.774Z,-3.4
2016-12-05T05:41:38.700Z,-3.3
2016-12-05T05:42:40.129Z,-3.3
2016-12-05T05:43:41.056Z,-3.4
2016-12-05T05:44:42.488Z,-3.4
2016-12-05T05:45:43.417Z,-3.4
2016-12-05T05:46:44.844Z,-3.4
2016-12-05T05:47:46.271Z,-3.4
2016-12-05T05:48:47.198Z,-3.4
2016-12-05T05:49:48.631Z,-3.4
2016-12-05T05:50:49.560Z,-3.4
2016-12-05T05:51:50.993Z,-3.4
2016-12-05T05:52:51.933Z,-3.4
2016-12-05T05:53:53.364Z,-3.4
2016-12-05T05:54:54.295Z,-3.4
2016-12-05T05:55:55.730Z,-3.4
2016-12-05T05:56:57.162Z,-3.4
2016-12-05T05:57:58.085Z,-3.4
2016-12-05T05:58:59.516Z,-3.4
2016-12-05T06:00:00.440Z,-3.4
2016-12-05T06:01:01.878Z,-3.4
2016-12-05T06:02:02.812Z,-3.4
2016-12-05T06:03:04.244Z,-3.4
2016-12-05T06:04:05.172Z,-3.4
2016-12-05T06:06:08.006Z,-3.4
2016-12-05T06:07:08.936Z,-3.4
2016-12-05T06:08:10.362Z,-3.4
2016-12-05T06:09:11.289Z,-3.4
2016-12-05T06:10:12.721Z,-3.4
2016-12-05T06:11:14.153Z,-3.4
2016-12-05T06:12:15.106Z,-3.4
2016-12-05T06:13:16.166Z,-3.4
2016-12-05T06:14:17.601Z,-3.4
2016-12-05T06:15:18.529Z,-3.4
2016-12-05T06:16:19.962Z,-3.4
2016-12-05T06:17:21.398Z,-3.4
2016-12-05T06:18:22.329Z,-3.4
2016-12-05T06:19:23.765Z,-3.4
2016-12-05T06:20:24.690Z,-3.4
2016-12-05T06:21:26.124Z,-3.5
2016-12-05T06:22:27.055Z,-3.5
2016-12-05T06:23:28.494Z,-3.5
2016-12-05T06:24:30.124Z,-3.5
2016-12-05T06:25:31.054Z,-3.5
2016-12-05T06:26:31.987Z,-3.5
2016-12-05T06:27:33.561Z,-3.5
2016-12-05T06:28:34.489Z,-3.5
2016-12-05T06:30:36.817Z,-3.4
2016-12-05T06:32:39.136Z,-3.4
2016-12-05T06:33:40.566Z,-3.4
2016-12-05T06:34:41.496Z,-3.4
2016-12-05T06:35:42.925Z,-3.4
2016-12-05T06:36:44.491Z,-3.4
2016-12-05T06:37:45.417Z,-3.4
2016-12-05T06:38:46.338Z,-3.4
2016-12-05T06:39:47.768Z,-3.4
2016-12-05T06:40:49.195Z,-3.4
2016-12-05T06:41:50.123Z,-3.4
2016-12-05T06:43:52.449Z,-3.4
2016-12-05T06:44:53.881Z,-3.4
2016-12-05T06:45:54.815Z,-3.5
2016-12-05T06:46:56.243Z,-3.4
2016-12-05T06:47:57.167Z,-3.5
2016-12-05T06:48:58.594Z,-3.5
2016-12-05T06:51:00.921Z,-3.5
2016-12-05T06:52:02.350Z,-3.5
2016-12-05T06:53:03.281Z,-3.5
2016-12-05T06:54:04.714Z,-3.5
2016-12-05T06:55:05.774Z,-3.5
2016-12-05T06:56:07.209Z,-3.5
2016-12-05T06:57:08.133Z,-3.5
2016-12-05T06:58:09.561Z,-3.5
2016-12-05T06:59:10.483Z,-3.5
2016-12-05T07:00:11.914Z,-3.5
2016-12-05T07:01:12.839Z,-3.5
2016-12-05T07:02:14.291Z,-3.5
2016-12-05T07:03:15.724Z,-3.5
2016-12-05T07:04:16.661Z,-3.5
2016-12-05T07:05:18.089Z,-3.5
2016-12-05T07:06:19.014Z,-3.5
2016-12-05T07:07:20.443Z,-3.5
2016-12-05T07:08:21.371Z,-3.5
2016-12-05T07:09:22.936Z,-3.5
2016-12-05T07:10:23.863Z,-3.5
2016-12-05T07:11:25.298Z,-3.5
2016-12-05T07:12:26.226Z,-3.5
2016-12-05T07:13:27.724Z,-3.5
2016-12-05T07:14:28.649Z,-3.5
2016-12-05T07:15:30.079Z,-3.5
2016-12-05T07:16:31.007Z,-3.5
2016-12-05T07:17:32.445Z,-3.5
2016-12-05T07:18:33.373Z,-3.5
2016-12-05T07:19:34.796Z,-3.5
2016-12-05T07:20:36.224Z,-3.5
2016-12-05T07:21:37.149Z,-3.5
2016-12-05T07:22:38.579Z,-3.5
2016-12-05T07:23:39.503Z,-3.5
2016-12-05T07:24:40.930Z,-3.5
2016-12-05T07:25:41.858Z,-3.5
2016-12-05T07:26:43.285Z,-3.5
2016-12-05T07:27:44.214Z,-3.5
2016-12-05T07:28:45.641Z,-3.5
2016-12-05T07:30:47.970Z,-3.5
2016-12-05T07:31:49.399Z,-3.5
2016-12-05T07:32:50.319Z,-3.5
2016-12-05T07:33:51.749Z,-3.5
2016-12-05T07:34:52.671Z,-3.5
2016-12-05T07:35:54.097Z,-3.5
2016-12-05T07:36:55.029Z,-3.5
2016-12-05T07:37:56.462Z,-3.5
2016-12-05T07:38:57.889Z,-3.5
2016-12-05T07:39:58.820Z,-3.5
2016-12-05T07:41:00.257Z,-3.5
2016-12-05T07:42:01.181Z,-3.5
2016-12-05T07:43:02.752Z,-3.5
2016-12-05T07:44:03.681Z,-3.4
2016-12-05T07:45:05.109Z,-3.4
2016-12-05T07:46:06.035Z,-3.4
2016-12-05T07:47:07.497Z,-3.4
2016-12-05T07:48:08.430Z,-3.4
2016-12-05T07:49:09.860Z,-3.4
2016-12-05T07:50:10.787Z,-3.3
2016-12-05T07:52:13.616Z,-3.3
2016-12-05T07:53:14.538Z,-3.3
2016-12-05T07:54:15.975Z,-3.2
2016-12-05T07:55:16.906Z,-3.2
2016-12-05T07:56:18.334Z,-3.2
2016-12-05T07:58:20.687Z,-3.2
2016-12-05T07:59:21.626Z,-3.1
2016-12-05T08:00:23.054Z,-3.1
2016-12-05T08:01:24.478Z,-3.1
2016-12-05T08:02:25.411Z,-3.1
2016-12-05T08:03:26.846Z,-3.1
2016-12-05T08:04:27.772Z,-3
2016-12-05T08:05:29.215Z,-3
2016-12-05T08:06:30.151Z,-3
2016-12-05T08:07:31.583Z,-3
2016-12-05T08:08:32.514Z,-2.9
2016-12-05T08:09:33.944Z,-2.9
2016-12-05T08:10:35.377Z,-2.9
2016-12-05T08:11:36.302Z,-2.9
2016-12-05T08:12:37.732Z,-2.9
2016-12-05T08:13:38.663Z,-2.8
2016-12-05T08:14:40.188Z,-2.8
2016-12-05T08:15:41.125Z,-2.8
2016-12-05T08:16:42.552Z,-2.8
2016-12-05T08:17:43.478Z,-2.8
2016-12-05T08:19:46.302Z,-2.8
2016-12-05T08:20:47.231Z,-2.8
2016-12-05T08:21:48.661Z,-2.8
2016-12-05T08:22:49.589Z,-2.8
2016-12-05T08:23:51.021Z,-2.8
2016-12-05T08:24:51.948Z,-2.8
2016-12-05T08:25:53.373Z,-2.8
2016-12-05T08:26:54.800Z,-2.8
2016-12-05T08:27:55.722Z,-2.8
2016-12-05T08:28:57.153Z,-2.8
2016-12-05T08:29:58.082Z,-2.8
2016-12-05T08:30:59.512Z,-2.8
2016-12-05T08:32:00.943Z,-2.8
2016-12-05T08:33:01.870Z,-2.8
2016-12-05T08:34:03.307Z,-2.8
2016-12-05T08:35:04.237Z,-2.8
2016-12-05T08:36:05.811Z,-2.7
2016-12-05T08:37:06.735Z,-2.7
2016-12-05T08:38:08.164Z,-2.7
2016-12-05T08:39:09.091Z,-2.7
2016-12-05T08:40:10.526Z,-2.7
2016-12-05T08:41:11.456Z,-2.7
2016-12-05T08:42:12.888Z,-2.7
2016-12-05T08:43:14.320Z,-2.7
2016-12-05T08:45:16.643Z,-2.7
2016-12-05T08:46:17.583Z,-2.7
2016-12-05T08:47:19.066Z,-2.7
2016-12-05T08:48:19.998Z,-2.7
2016-12-05T08:49:21.431Z,-2.7
2016-12-05T08:50:22.867Z,-2.6
2016-12-05T08:51:23.792Z,-2.6
2016-12-05T08:52:25.230Z,-2.6
2016-12-05T08:53:26.156Z,-2.6
2016-12-05T08:54:27.587Z,-2.6
2016-12-05T08:55:28.512Z,-2.6
2016-12-05T08:56:29.949Z,-2.6
2016-12-05T08:57:31.388Z,-2.6
2016-12-05T08:58:32.316Z,-2.6
2016-12-05T08:59:33.740Z,-2.6
2016-12-05T09:00:34.663Z,-2.6
2016-12-05T09:01:36.100Z,-2.5
2016-12-05T09:02:37.536Z,-2.5
2016-12-05T09:03:38.461Z,-2.5
2016-12-05T09:04:39.892Z,-2.5
2016-12-05T09:05:40.818Z,-2.5
2016-12-05T09:06:42.255Z,-2.5
2016-12-05T09:07:43.183Z,-2.5
2016-12-05T09:08:44.615Z,-2.5
2016-12-05T09:09:46.745Z,-2.5
2016-12-05T09:10:47.168Z,-2.4
2016-12-05T09:11:48.095Z,-2.4
2016-12-05T09:12:49.526Z,-2.4
2016-12-05T09:13:50.952Z,-2.4
2016-12-05T09:14:51.873Z,-2.4
2016-12-05T09:15:53.308Z,-2.4
2016-12-05T09:16:54.244Z,-2.4
2016-12-05T09:17:55.674Z,-2.4
2016-12-05T09:18:57.103Z,-2.4
2016-12-05T09:19:58.156Z,-2.4
2016-12-05T09:20:59.586Z,-2.4
2016-12-05T09:22:00.512Z,-2.4
2016-12-05T09:23:01.945Z,-2.4
2016-12-05T09:24:03.001Z,-2.3
2016-12-05T09:25:04.432Z,-2.3
2016-12-05T09:26:05.363Z,-2.3
2016-12-05T09:28:07.700Z,-2.3
2016-12-05T09:29:09.129Z,-2.3
2016-12-05T09:30:10.557Z,-2.3
2016-12-05T09:31:11.481Z,-2.3
2016-12-05T09:32:12.908Z,-2.2
2016-12-05T09:33:13.833Z,-2.2
2016-12-05T09:35:16.662Z,-2.2
2016-12-05T09:36:17.587Z,-2.2
2016-12-05T09:37:19.162Z,-2.2
2016-12-05T09:38:20.098Z,-2.2
2016-12-05T09:39:21.533Z,-2.2
2016-12-05T09:40:22.462Z,-2.1
2016-12-05T09:41:23.889Z,-2.1
2016-12-05T09:42:25.318Z,-2.1
2016-12-05T09:43:26.251Z,-2.1
2016-12-05T09:44:27.680Z,-2.1
2016-12-05T09:45:28.604Z,-2.1
2016-12-05T09:47:31.441Z,-2.1
2016-12-05T09:48:32.370Z,-2.1
2016-12-05T09:49:33.799Z,-2.1
2016-12-05T09:51:36.122Z,-2.1
2016-12-05T09:52:37.555Z,-2
2016-12-05T09:53:38.481Z,-2
2016-12-05T09:54:39.909Z,-2
2016-12-05T09:55:41.340Z,-2
2016-12-05T09:56:42.262Z,-2
2016-12-05T09:57:43.698Z,-2
2016-12-05T09:58:44.629Z,-2
2016-12-05T10:00:47.459Z,-2
2016-12-05T10:01:48.385Z,-1.9
2016-12-05T10:02:49.811Z,-2
2016-12-05T10:03:50.741Z,-1.9
2016-12-05T10:04:52.199Z,-1.9
2016-12-05T10:06:54.523Z,-1.9
2016-12-05T10:07:55.957Z,-1.9
2016-12-05T10:08:56.877Z,-1.9
2016-12-05T10:09:58.304Z,-1.9
2016-12-05T10:10:59.739Z,-1.9
2016-12-05T10:12:00.673Z,-1.9
2016-12-05T10:13:02.109Z,-1.9
2016-12-05T10:14:03.039Z,-1.9
2016-12-05T10:15:04.469Z,-1.9
2016-12-05T10:16:05.901Z,-1.9
2016-12-05T10:17:06.833Z,-1.9
2016-12-05T10:18:08.260Z,-1.8
2016-12-05T10:19:09.689Z,-1.8
2016-12-05T10:20:10.618Z,-1.8
2016-12-05T10:21:12.047Z,-1.8
2016-12-05T10:22:12.974Z,-1.8
2016-12-05T10:23:14.403Z,-1.8
2016-12-05T10:24:15.836Z,-1.8
2016-12-05T10:26:18.163Z,-1.8
2016-12-05T10:27:19.343Z,-1.8
2016-12-05T10:28:20.774Z,-1.7
2016-12-05T10:29:21.695Z,-1.7
2016-12-05T10:30:23.123Z,-1.7
2016-12-05T10:31:24.220Z,-1.7
2016-12-05T10:32:25.658Z,-1.7
2016-12-05T10:33:26.583Z,-1.7
2016-12-05T10:34:28.019Z,-1.7
2016-12-05T10:35:29.458Z,-1.7
2016-12-05T10:36:30.381Z,-1.7
2016-12-05T10:37:31.811Z,-1.7
2016-12-05T10:38:32.745Z,-1.7
2016-12-05T10:39:34.187Z,-1.7
2016-12-05T10:41:36.518Z,-1.7
2016-12-05T10:42:37.946Z,-1.7
2016-12-05T10:43:39.375Z,-1.7
2016-12-05T10:44:40.297Z,-1.7
2016-12-05T10:45:41.760Z,-1.7
2016-12-05T10:46:42.688Z,-1.7
2016-12-05T10:47:44.118Z,-1.6
2016-12-05T10:48:45.559Z,-1.6
2016-12-05T10:49:46.679Z,-1.6
2016-12-05T10:50:47.664Z,-1.6
2016-12-05T10:51:49.242Z,-1.6
2016-12-05T10:52:50.163Z,-1.6
2016-12-05T10:53:51.595Z,-1.6
2016-12-05T10:54:52.527Z,-1.6
2016-12-05T10:55:53.981Z,-1.5
2016-12-05T10:56:55.551Z,-1.5
2016-12-05T10:57:56.478Z,-1.5
2016-12-05T10:58:57.911Z,-1.5
2016-12-05T10:59:58.978Z,-1.5
2016-12-05T11:01:00.422Z,-1.5
2016-12-05T11:02:01.349Z,-1.5
2016-12-05T11:03:02.778Z,-1.5
2016-12-05T11:04:03.696Z,-1.5
2016-12-05T11:05:05.122Z,-1.4
2016-12-05T11:06:06.552Z,-1.4
2016-12-05T11:07:07.497Z,-1.4
2016-12-05T11:08:08.932Z,-1.4
2016-12-05T11:09:10.363Z,-1.4
2016-12-05T11:10:11.317Z,-1.4
2016-12-05T11:11:12.747Z,-1.4
2016-12-05T11:12:13.697Z,-1.3
2016-12-05T11:13:15.275Z,-1.3
2016-12-05T11:15:17.606Z,-1.3
2016-12-05T11:16:18.672Z,-1.3
2016-12-05T11:17:20.102Z,-1.3
2016-12-05T11:18:21.534Z,-1.3
2016-12-05T11:19:22.523Z,-1.3
2016-12-05T11:20:23.602Z,-1.2
2016-12-05T11:21:25.029Z,-1.2
2016-12-05T11:22:26.457Z,-1.2
2016-12-05T11:23:27.394Z,-1.2
2016-12-05T11:24:28.821Z,-1.2
2016-12-05T11:25:30.254Z,-1.2
2016-12-05T11:26:31.182Z,-1.2
2016-12-05T11:27:32.611Z,-1.2
2016-12-05T11:28:34.054Z,-1.2
2016-12-05T11:29:34.976Z,-1.1
2016-12-05T11:30:36.407Z,-1.1
2016-12-05T11:31:37.332Z,-1.1
2016-12-05T11:32:38.826Z,-1.1
2016-12-05T11:33:40.256Z,-1.1
2016-12-05T11:34:41.183Z,-1
2016-12-05T11:35:42.612Z,-1
2016-12-05T11:36:44.039Z,-1
2016-12-05T11:37:44.961Z,-1
2016-12-05T11:38:46.397Z,-1
2016-12-05T11:39:47.672Z,-1
2016-12-05T11:40:48.751Z,-1
2016-12-05T11:41:50.180Z,-1
2016-12-05T11:42:51.102Z,-1
2016-12-05T11:43:52.534Z,-1
2016-12-05T11:44:53.967Z,-1
2016-12-05T11:45:54.888Z,-1
2016-12-05T11:46:56.317Z,-0.9
2016-12-05T11:47:57.745Z,-0.9
2016-12-05T11:48:58.671Z,-0.9
2016-12-05T11:50:00.099Z,-0.9
2016-12-05T11:51:01.527Z,-0.9
2016-12-05T11:52:02.462Z,-0.9
2016-12-05T11:53:03.897Z,-0.9
2016-12-05T11:55:06.227Z,-0.9
2016-12-05T11:56:07.661Z,-0.9
2016-12-05T11:57:09.090Z,-0.9
2016-12-05T11:58:10.034Z,-0.9
2016-12-05T11:59:11.461Z,-0.9
2016-12-05T12:00:12.397Z,-0.9
2016-12-05T12:01:13.824Z,-0.9
2016-12-05T12:02:15.252Z,-0.8
2016-12-05T12:03:16.176Z,-0.8
2016-12-05T12:04:17.609Z,-0.8
2016-12-05T12:05:19.044Z,-0.8
2016-12-05T12:06:19.969Z,-0.8
2016-12-05T12:07:21.399Z,-0.8
2016-12-05T12:08:22.832Z,-0.8
2016-12-05T12:09:23.757Z,-0.8
2016-12-05T12:10:25.191Z,-0.7
2016-12-05T12:11:26.653Z,-0.7
2016-12-05T12:12:27.580Z,-0.7
2016-12-05T12:13:29.013Z,-0.7
2016-12-05T12:14:30.438Z,-0.7
2016-12-05T12:15:31.498Z,-0.7
2016-12-05T12:16:32.960Z,-0.7
2016-12-05T12:17:33.889Z,-0.7
2016-12-05T12:18:35.314Z,-0.7
2016-12-05T12:19:36.240Z,-0.7
2016-12-05T12:20:37.673Z,-0.6
2016-12-05T12:21:39.131Z,-0.6
2016-12-05T12:22:40.055Z,-0.6
2016-12-05T12:23:41.487Z,-0.6
2016-12-05T12:25:43.825Z,-0.6
2016-12-05T12:26:45.330Z,-0.6
2016-12-05T12:27:46.766Z,-0.6
2016-12-05T12:28:47.685Z,-0.6
2016-12-05T12:29:49.118Z,-0.6
2016-12-05T12:30:50.548Z,-0.6
2016-12-05T12:32:52.871Z,-0.6
2016-12-05T12:33:54.299Z,-0.5
2016-12-05T12:34:55.230Z,-0.5
2016-12-05T12:35:56.666Z,-0.5
2016-12-05T12:36:58.095Z,-0.5
2016-12-05T12:39:00.632Z,-0.5
2016-12-05T12:41:02.965Z,-0.5
2016-12-05T12:42:04.391Z,-0.5
2016-12-05T12:43:05.316Z,-0.5
2016-12-05T12:44:06.748Z,-0.5
2016-12-05T12:45:08.210Z,-0.5
2016-12-05T12:46:09.135Z,-0.5
2016-12-05T12:47:10.579Z,-0.5
2016-12-05T12:48:12.008Z,-0.5
2016-12-05T12:49:12.936Z,-0.4
2016-12-05T12:50:14.365Z,-0.4
2016-12-05T12:51:15.798Z,-0.5
2016-12-05T12:52:16.723Z,-0.5
2016-12-05T12:53:18.148Z,-0.4
2016-12-05T12:54:19.574Z,-0.4
2016-12-05T12:56:21.901Z,-0.4
2016-12-05T12:57:23.333Z,-0.4
2016-12-05T12:58:24.264Z,-0.4
2016-12-05T12:59:25.690Z,-0.4
2016-12-05T13:00:27.119Z,-0.4
2016-12-05T13:01:28.044Z,-0.4
2016-12-05T13:02:29.474Z,-0.4
2016-12-05T13:03:30.902Z,-0.4
2016-12-05T13:04:31.829Z,-0.4
2016-12-05T13:05:33.258Z,-0.4
2016-12-05T13:06:34.824Z,-0.4
2016-12-05T13:08:37.164Z,-0.3
2016-12-05T13:09:38.096Z,-0.3
2016-12-05T13:12:42.331Z,-0.3
2016-12-05T13:13:43.263Z,-0.3
2016-12-05T13:14:44.692Z,-0.3
2016-12-05T13:15:46.131Z,-0.3
2016-12-05T13:16:47.057Z,-0.3
2016-12-05T13:17:48.482Z,-0.3
2016-12-05T13:18:49.910Z,-0.3
2016-12-05T13:20:52.236Z,-0.3
2016-12-05T13:21:53.669Z,-0.3
2016-12-05T13:22:54.618Z,-0.3
2016-12-05T13:23:56.045Z,-0.3
2016-12-05T13:24:57.473Z,-0.3
2016-12-05T13:25:58.393Z,-0.3
2016-12-05T13:26:59.827Z,-0.3
2016-12-05T13:28:01.256Z,-0.3
2016-12-05T13:29:02.191Z,-0.3
2016-12-05T13:30:03.754Z,-0.3
2016-12-05T13:31:04.681Z,-0.3
2016-12-05T13:32:06.113Z,-0.3
2016-12-05T13:33:07.536Z,-0.3
2016-12-05T13:34:08.457Z,-0.3
2016-12-05T13:35:09.890Z,-0.3
2016-12-05T13:36:11.320Z,-0.3
2016-12-05T13:37:12.247Z,-0.3
2016-12-05T13:38:13.676Z,-0.3
2016-12-05T13:39:15.104Z,-0.3
2016-12-05T13:40:16.549Z,-0.3
2016-12-05T13:41:17.476Z,-0.3
2016-12-05T13:42:18.910Z,-0.3
2016-12-05T13:43:20.335Z,-0.3
2016-12-05T13:44:21.258Z,-0.3
2016-12-05T13:46:24.085Z,-0.3
2016-12-05T13:47:25.010Z,-0.2
2016-12-05T13:48:26.440Z,-0.3
2016-12-05T13:49:27.868Z,-0.3
2016-12-05T13:50:28.794Z,-0.3
2016-12-05T13:51:30.222Z,-0.3
2016-12-05T13:52:31.646Z,-0.3
2016-12-05T13:53:32.575Z,-0.3
2016-12-05T13:54:34.008Z,-0.2
2016-12-05T13:55:35.435Z,-0.2
2016-12-05T13:56:36.366Z,-0.2
2016-12-05T13:57:37.795Z,-0.2
2016-12-05T13:58:39.223Z,-0.2
2016-12-05T13:59:40.151Z,-0.2
2016-12-05T14:00:41.589Z,-0.2
2016-12-05T14:02:44.419Z,-0.2
2016-12-05T14:03:45.349Z,-0.2
2016-12-05T14:04:46.930Z,-0.2
2016-12-05T14:05:47.867Z,-0.2
2016-12-05T14:06:49.291Z,-0.2
2016-12-05T14:08:51.615Z,-0.2
2016-12-05T14:10:54.447Z,-0.2
2016-12-05T14:11:55.377Z,-0.2
2016-12-05T14:12:56.799Z,-0.3
2016-12-05T14:13:58.230Z,-0.3
2016-12-05T14:14:59.155Z,-0.3
2016-12-05T14:16:00.584Z,-0.2
2016-12-05T14:17:02.154Z,-0.3
2016-12-05T14:18:03.086Z,-0.3
2016-12-05T14:19:04.580Z,-0.3
2016-12-05T14:20:05.509Z,-0.3
2016-12-05T14:21:07.085Z,-0.3
2016-12-05T14:22:08.513Z,-0.3
2016-12-05T14:23:09.441Z,-0.3
2016-12-05T14:24:10.867Z,-0.3
2016-12-05T14:25:12.303Z,-0.3
2016-12-05T14:26:13.256Z,-0.3
2016-12-05T14:27:14.688Z,-0.3
2016-12-05T14:28:15.609Z,-0.3
2016-12-05T14:29:17.036Z,-0.3
2016-12-05T14:30:18.471Z,-0.3
2016-12-05T14:31:19.909Z,-0.3
2016-12-05T14:32:20.865Z,-0.3